sensor_id;sensor_type;location;lat;lon;timestamp;temperature;humidity
46926;DHT22;32667;48.248;-1.700;2023-08-21T00:01:26;20.20;67.70
46926;DHT22;32667;48.248;-1.700;2023-08-21T00:03:52;20.20;67.70
46926;DHT22;32667;48.248;-1.700;2023-08-21T00:06:22;20.10;67.70
46926;DHT22;32667;48.248;-1.700;2023-08-21T00:08:55;20.10;67.70
46926;DHT22;32667;48.248;-1.700;2023-08-21T00:11:23;20.10;67.70
46926;DHT22;32667;48.248;-1.700;2023-08-21T00:13:49;20.10;67.70
46926;DHT22;32667;48.248;-1.700;2023-08-21T00:16:18;20.10;67.80
46926;DHT22;32667;48.248;-1.700;2023-08-21T00:18:46;20.00;67.70
46926;DHT22;32667;48.248;-1.700;2023-08-21T00:21:20;20.00;67.80
46926;DHT22;32667;48.248;-1.700;2023-08-21T00:23:45;20.00;67.80
46926;DHT22;32667;48.248;-1.700;2023-08-21T00:26:13;20.00;67.80
46926;DHT22;32667;48.248;-1.700;2023-08-21T00:28:42;19.90;67.70
46926;DHT22;32667;48.248;-1.700;2023-08-21T00:31:07;19.90;67.70
46926;DHT22;32667;48.248;-1.700;2023-08-21T00:33:33;19.90;67.70
46926;DHT22;32667;48.248;-1.700;2023-08-21T00:36:02;19.90;67.70
46926;DHT22;32667;48.248;-1.700;2023-08-21T00:38:28;19.90;67.70
46926;DHT22;32667;48.248;-1.700;2023-08-21T00:40:59;19.90;67.70
46926;DHT22;32667;48.248;-1.700;2023-08-21T00:43:36;19.90;67.70
46926;DHT22;32667;48.248;-1.700;2023-08-21T00:46:05;19.80;67.60
46926;DHT22;32667;48.248;-1.700;2023-08-21T00:48:33;19.80;67.70
46926;DHT22;32667;48.248;-1.700;2023-08-21T00:51:03;19.80;67.80
46926;DHT22;32667;48.248;-1.700;2023-08-21T00:53:36;19.70;67.80
46926;DHT22;32667;48.248;-1.700;2023-08-21T00:56:04;19.60;67.80
46926;DHT22;32667;48.248;-1.700;2023-08-21T00:58:30;19.60;67.90
46926;DHT22;32667;48.248;-1.700;2023-08-21T01:00:56;19.60;67.90
46926;DHT22;32667;48.248;-1.700;2023-08-21T01:03:24;19.60;67.90
46926;DHT22;32667;48.248;-1.700;2023-08-21T01:05:52;19.60;68.00
46926;DHT22;32667;48.248;-1.700;2023-08-21T01:08:45;19.50;67.90
46926;DHT22;32667;48.248;-1.700;2023-08-21T01:11:33;19.50;67.90
46926;DHT22;32667;48.248;-1.700;2023-08-21T01:16:37;19.50;67.90
46926;DHT22;32667;48.248;-1.700;2023-08-21T01:19:10;19.50;67.90
46926;DHT22;32667;48.248;-1.700;2023-08-21T01:21:42;19.50;67.90
46926;DHT22;32667;48.248;-1.700;2023-08-21T01:24:07;19.50;67.90
46926;DHT22;32667;48.248;-1.700;2023-08-21T01:26:36;19.40;67.90
46926;DHT22;32667;48.248;-1.700;2023-08-21T01:29:04;19.40;67.80
46926;DHT22;32667;48.248;-1.700;2023-08-21T01:31:32;19.50;67.80
46926;DHT22;32667;48.248;-1.700;2023-08-21T01:34:06;19.40;67.70
46926;DHT22;32667;48.248;-1.700;2023-08-21T01:36:34;19.50;67.80
46926;DHT22;32667;48.248;-1.700;2023-08-21T01:39:04;19.50;67.80
46926;DHT22;32667;48.248;-1.700;2023-08-21T01:41:30;19.40;67.70
46926;DHT22;32667;48.248;-1.700;2023-08-21T01:43:58;19.40;67.70
46926;DHT22;32667;48.248;-1.700;2023-08-21T01:46:26;19.40;67.70
46926;DHT22;32667;48.248;-1.700;2023-08-21T01:48:54;19.40;67.70
46926;DHT22;32667;48.248;-1.700;2023-08-21T01:51:22;19.40;67.70
46926;DHT22;32667;48.248;-1.700;2023-08-21T01:53:48;19.40;67.70
46926;DHT22;32667;48.248;-1.700;2023-08-21T01:56:14;19.40;67.70
46926;DHT22;32667;48.248;-1.700;2023-08-21T01:58:44;19.40;67.70
46926;DHT22;32667;48.248;-1.700;2023-08-21T02:01:10;19.30;67.70
46926;DHT22;32667;48.248;-1.700;2023-08-21T02:03:42;19.30;67.80
46926;DHT22;32667;48.248;-1.700;2023-08-21T02:06:08;19.30;67.80
46926;DHT22;32667;48.248;-1.700;2023-08-21T02:08:34;19.30;67.80
46926;DHT22;32667;48.248;-1.700;2023-08-21T02:11:00;19.20;67.80
46926;DHT22;32667;48.248;-1.700;2023-08-21T02:13:28;19.20;67.80
46926;DHT22;32667;48.248;-1.700;2023-08-21T02:15:54;19.20;67.80
46926;DHT22;32667;48.248;-1.700;2023-08-21T02:18:20;19.20;67.80
46926;DHT22;32667;48.248;-1.700;2023-08-21T02:20:49;19.20;67.80
46926;DHT22;32667;48.248;-1.700;2023-08-21T02:23:15;19.30;67.80
46926;DHT22;32667;48.248;-1.700;2023-08-21T02:25:43;19.20;67.80
46926;DHT22;32667;48.248;-1.700;2023-08-21T02:28:12;19.20;67.70
46926;DHT22;32667;48.248;-1.700;2023-08-21T02:30:41;19.20;67.70
46926;DHT22;32667;48.248;-1.700;2023-08-21T02:33:07;19.20;67.70
46926;DHT22;32667;48.248;-1.700;2023-08-21T02:35:35;19.30;67.70
46926;DHT22;32667;48.248;-1.700;2023-08-21T02:38:03;19.20;67.60
46926;DHT22;32667;48.248;-1.700;2023-08-21T02:40:34;19.20;67.60
46926;DHT22;32667;48.248;-1.700;2023-08-21T02:42:59;19.30;67.60
46926;DHT22;32667;48.248;-1.700;2023-08-21T02:45:25;19.20;67.60
46926;DHT22;32667;48.248;-1.700;2023-08-21T02:47:51;19.20;67.60
46926;DHT22;32667;48.248;-1.700;2023-08-21T02:50:16;19.20;67.60
46926;DHT22;32667;48.248;-1.700;2023-08-21T02:52:42;19.20;67.60
46926;DHT22;32667;48.248;-1.700;2023-08-21T02:55:10;19.20;67.70
46926;DHT22;32667;48.248;-1.700;2023-08-21T02:57:36;19.20;67.70
46926;DHT22;32667;48.248;-1.700;2023-08-21T03:00:02;19.20;67.60
46926;DHT22;32667;48.248;-1.700;2023-08-21T03:02:28;19.20;67.60
46926;DHT22;32667;48.248;-1.700;2023-08-21T03:04:56;19.20;67.60
46926;DHT22;32667;48.248;-1.700;2023-08-21T03:07:24;19.20;67.60
46926;DHT22;32667;48.248;-1.700;2023-08-21T03:09:55;19.20;67.50
46926;DHT22;32667;48.248;-1.700;2023-08-21T03:12:21;19.20;67.50
46926;DHT22;32667;48.248;-1.700;2023-08-21T03:14:47;19.20;67.50
46926;DHT22;32667;48.248;-1.700;2023-08-21T03:17:12;19.20;67.40
46926;DHT22;32667;48.248;-1.700;2023-08-21T03:19:38;19.30;67.40
46926;DHT22;32667;48.248;-1.700;2023-08-21T03:22:04;19.30;67.40
46926;DHT22;32667;48.248;-1.700;2023-08-21T03:24:39;19.30;67.40
46926;DHT22;32667;48.248;-1.700;2023-08-21T03:27:05;19.30;67.30
46926;DHT22;32667;48.248;-1.700;2023-08-21T03:29:38;19.30;67.30
46926;DHT22;32667;48.248;-1.700;2023-08-21T03:32:07;19.30;67.30
46926;DHT22;32667;48.248;-1.700;2023-08-21T03:34:33;19.30;67.30
46926;DHT22;32667;48.248;-1.700;2023-08-21T03:37:01;19.30;67.30
46926;DHT22;32667;48.248;-1.700;2023-08-21T03:39:27;19.30;67.30
46926;DHT22;32667;48.248;-1.700;2023-08-21T03:41:52;19.40;67.30
46926;DHT22;32667;48.248;-1.700;2023-08-21T03:44:20;19.40;67.30
46926;DHT22;32667;48.248;-1.700;2023-08-21T03:46:46;19.40;67.30
46926;DHT22;32667;48.248;-1.700;2023-08-21T03:49:16;19.40;67.30
46926;DHT22;32667;48.248;-1.700;2023-08-21T03:51:42;19.40;67.30
46926;DHT22;32667;48.248;-1.700;2023-08-21T03:54:10;19.40;67.30
46926;DHT22;32667;48.248;-1.700;2023-08-21T03:56:38;19.30;67.30
46926;DHT22;32667;48.248;-1.700;2023-08-21T03:59:03;19.40;67.30
46926;DHT22;32667;48.248;-1.700;2023-08-21T04:01:31;19.40;67.30
46926;DHT22;32667;48.248;-1.700;2023-08-21T04:03:57;19.40;67.30
46926;DHT22;32667;48.248;-1.700;2023-08-21T04:06:23;19.40;67.30
46926;DHT22;32667;48.248;-1.700;2023-08-21T04:08:49;19.40;67.30
46926;DHT22;32667;48.248;-1.700;2023-08-21T04:11:17;19.40;67.30
46926;DHT22;32667;48.248;-1.700;2023-08-21T04:13:45;19.40;67.30
46926;DHT22;32667;48.248;-1.700;2023-08-21T04:16:11;19.40;67.40
46926;DHT22;32667;48.248;-1.700;2023-08-21T04:18:40;19.40;67.40
46926;DHT22;32667;48.248;-1.700;2023-08-21T04:21:08;19.40;67.40
46926;DHT22;32667;48.248;-1.700;2023-08-21T04:23:35;19.40;67.40
46926;DHT22;32667;48.248;-1.700;2023-08-21T04:26:04;19.30;67.40
46926;DHT22;32667;48.248;-1.700;2023-08-21T04:28:31;19.30;67.40
46926;DHT22;32667;48.248;-1.700;2023-08-21T04:30:59;19.30;67.40
46926;DHT22;32667;48.248;-1.700;2023-08-21T04:33:31;19.30;67.40
46926;DHT22;32667;48.248;-1.700;2023-08-21T04:35:57;19.30;67.40
46926;DHT22;32667;48.248;-1.700;2023-08-21T04:38:23;19.30;67.40
46926;DHT22;32667;48.248;-1.700;2023-08-21T04:40:51;19.30;67.50
46926;DHT22;32667;48.248;-1.700;2023-08-21T04:43:19;19.20;67.50
46926;DHT22;32667;48.248;-1.700;2023-08-21T04:45:51;19.20;67.50
46926;DHT22;32667;48.248;-1.700;2023-08-21T04:48:18;19.20;67.60
46926;DHT22;32667;48.248;-1.700;2023-08-21T04:50:45;19.20;67.60
46926;DHT22;32667;48.248;-1.700;2023-08-21T04:53:11;19.20;67.60
46926;DHT22;32667;48.248;-1.700;2023-08-21T04:55:37;19.20;67.60
46926;DHT22;32667;48.248;-1.700;2023-08-21T04:58:05;19.20;67.60
46926;DHT22;32667;48.248;-1.700;2023-08-21T05:00:30;19.10;67.60
46926;DHT22;32667;48.248;-1.700;2023-08-21T05:02:56;19.10;67.60
46926;DHT22;32667;48.248;-1.700;2023-08-21T05:05:24;19.10;67.70
46926;DHT22;32667;48.248;-1.700;2023-08-21T05:07:55;19.10;67.70
46926;DHT22;32667;48.248;-1.700;2023-08-21T05:10:21;19.10;67.70
46926;DHT22;32667;48.248;-1.700;2023-08-21T05:12:46;19.10;67.70
46926;DHT22;32667;48.248;-1.700;2023-08-21T05:15:24;19.10;67.70
46926;DHT22;32667;48.248;-1.700;2023-08-21T05:17:52;19.10;67.70
46926;DHT22;32667;48.248;-1.700;2023-08-21T05:20:26;19.00;67.70
46926;DHT22;32667;48.248;-1.700;2023-08-21T05:22:51;19.00;67.80
46926;DHT22;32667;48.248;-1.700;2023-08-21T05:25:17;18.90;67.80
46926;DHT22;32667;48.248;-1.700;2023-08-21T05:27:45;18.90;67.90
46926;DHT22;32667;48.248;-1.700;2023-08-21T05:30:11;18.90;68.00
46926;DHT22;32667;48.248;-1.700;2023-08-21T05:32:38;18.90;68.00
46926;DHT22;32667;48.248;-1.700;2023-08-21T05:35:07;18.90;68.00
46926;DHT22;32667;48.248;-1.700;2023-08-21T05:37:50;18.90;67.90
46926;DHT22;32667;48.248;-1.700;2023-08-21T05:40:21;18.90;67.90
46926;DHT22;32667;48.248;-1.700;2023-08-21T05:42:46;18.90;67.80
46926;DHT22;32667;48.248;-1.700;2023-08-21T05:45:14;18.90;67.80
46926;DHT22;32667;48.248;-1.700;2023-08-21T05:47:47;18.90;67.70
46926;DHT22;32667;48.248;-1.700;2023-08-21T05:50:13;19.00;67.70
46926;DHT22;32667;48.248;-1.700;2023-08-21T05:52:42;19.00;67.60
46926;DHT22;32667;48.248;-1.700;2023-08-21T05:55:15;19.00;67.60
46926;DHT22;32667;48.248;-1.700;2023-08-21T05:57:41;19.00;67.60
46926;DHT22;32667;48.248;-1.700;2023-08-21T06:00:07;19.00;67.50
46926;DHT22;32667;48.248;-1.700;2023-08-21T06:02:48;19.00;67.50
46926;DHT22;32667;48.248;-1.700;2023-08-21T06:05:14;19.00;67.50
46926;DHT22;32667;48.248;-1.700;2023-08-21T06:07:50;19.10;67.50
46926;DHT22;32667;48.248;-1.700;2023-08-21T06:10:17;19.10;67.50
46926;DHT22;32667;48.248;-1.700;2023-08-21T06:12:45;19.10;67.40
46926;DHT22;32667;48.248;-1.700;2023-08-21T06:15:13;19.10;67.40
46926;DHT22;32667;48.248;-1.700;2023-08-21T06:17:40;19.10;67.30
46926;DHT22;32667;48.248;-1.700;2023-08-21T06:20:07;19.10;67.30
46926;DHT22;32667;48.248;-1.700;2023-08-21T06:22:41;19.20;67.30
46926;DHT22;32667;48.248;-1.700;2023-08-21T06:25:16;19.20;67.30
46926;DHT22;32667;48.248;-1.700;2023-08-21T06:27:45;19.20;67.30
46926;DHT22;32667;48.248;-1.700;2023-08-21T06:30:14;19.30;67.20
46926;DHT22;32667;48.248;-1.700;2023-08-21T06:32:42;19.30;67.20
46926;DHT22;32667;48.248;-1.700;2023-08-21T06:35:08;19.30;67.20
46926;DHT22;32667;48.248;-1.700;2023-08-21T06:37:34;19.30;67.10
46926;DHT22;32667;48.248;-1.700;2023-08-21T06:40:00;19.40;67.10
46926;DHT22;32667;48.248;-1.700;2023-08-21T06:42:28;19.40;67.00
46926;DHT22;32667;48.248;-1.700;2023-08-21T06:44:53;19.50;67.00
46926;DHT22;32667;48.248;-1.700;2023-08-21T06:47:19;19.50;66.90
46926;DHT22;32667;48.248;-1.700;2023-08-21T06:49:47;19.50;66.90
46926;DHT22;32667;48.248;-1.700;2023-08-21T06:52:13;19.60;66.90
46926;DHT22;32667;48.248;-1.700;2023-08-21T06:54:41;19.60;66.80
46926;DHT22;32667;48.248;-1.700;2023-08-21T06:57:06;19.70;66.70
46926;DHT22;32667;48.248;-1.700;2023-08-21T06:59:35;19.80;66.60
46926;DHT22;32667;48.248;-1.700;2023-08-21T07:02:03;19.90;66.40
46926;DHT22;32667;48.248;-1.700;2023-08-21T07:04:29;20.10;66.90
46926;DHT22;32667;48.248;-1.700;2023-08-21T07:06:55;20.20;66.00
46926;DHT22;32667;48.248;-1.700;2023-08-21T07:09:21;20.40;65.80
46926;DHT22;32667;48.248;-1.700;2023-08-21T07:11:46;20.50;65.60
46926;DHT22;32667;48.248;-1.700;2023-08-21T07:14:14;20.70;65.40
46926;DHT22;32667;48.248;-1.700;2023-08-21T07:16:53;20.80;65.20
46926;DHT22;32667;48.248;-1.700;2023-08-21T07:19:26;21.00;65.10
46926;DHT22;32667;48.248;-1.700;2023-08-21T07:21:51;21.20;64.90
46926;DHT22;32667;48.248;-1.700;2023-08-21T07:24:19;21.30;64.80
46926;DHT22;32667;48.248;-1.700;2023-08-21T07:26:46;21.50;64.60
46926;DHT22;32667;48.248;-1.700;2023-08-21T07:29:12;21.60;64.50
46926;DHT22;32667;48.248;-1.700;2023-08-21T07:31:37;21.70;64.50
46926;DHT22;32667;48.248;-1.700;2023-08-21T07:34:03;21.70;64.50
46926;DHT22;32667;48.248;-1.700;2023-08-21T07:36:32;21.60;64.60
46926;DHT22;32667;48.248;-1.700;2023-08-21T07:38:58;21.60;64.80
46926;DHT22;32667;48.248;-1.700;2023-08-21T07:41:24;21.60;64.90
46926;DHT22;32667;48.248;-1.700;2023-08-21T07:43:49;21.70;64.90
46926;DHT22;32667;48.248;-1.700;2023-08-21T07:46:15;21.80;65.40
46926;DHT22;32667;48.248;-1.700;2023-08-21T07:48:45;21.90;64.60
46926;DHT22;32667;48.248;-1.700;2023-08-21T07:51:11;21.90;64.60
46926;DHT22;32667;48.248;-1.700;2023-08-21T07:53:37;22.00;64.60
46926;DHT22;32667;48.248;-1.700;2023-08-21T07:56:03;22.00;64.60
46926;DHT22;32667;48.248;-1.700;2023-08-21T07:58:29;22.10;64.70
46926;DHT22;32667;48.248;-1.700;2023-08-21T08:00:56;22.10;64.70
46926;DHT22;32667;48.248;-1.700;2023-08-21T08:03:21;22.20;64.60
46926;DHT22;32667;48.248;-1.700;2023-08-21T08:05:47;22.30;64.50
46926;DHT22;32667;48.248;-1.700;2023-08-21T08:08:16;22.40;64.40
46926;DHT22;32667;48.248;-1.700;2023-08-21T08:10:49;22.50;64.30
46926;DHT22;32667;48.248;-1.700;2023-08-21T08:13:14;22.60;64.30
46926;DHT22;32667;48.248;-1.700;2023-08-21T08:15:50;22.70;64.20
46926;DHT22;32667;48.248;-1.700;2023-08-21T08:18:15;22.70;64.20
46926;DHT22;32667;48.248;-1.700;2023-08-21T08:20:41;22.80;64.20
46926;DHT22;32667;48.248;-1.700;2023-08-21T08:23:10;22.90;64.20
46926;DHT22;32667;48.248;-1.700;2023-08-21T08:25:35;22.90;64.30
46926;DHT22;32667;48.248;-1.700;2023-08-21T08:28:03;22.90;64.30
46926;DHT22;32667;48.248;-1.700;2023-08-21T08:30:29;23.00;64.20
46926;DHT22;32667;48.248;-1.700;2023-08-21T08:32:55;23.10;64.20
46926;DHT22;32667;48.248;-1.700;2023-08-21T08:35:20;23.20;64.00
46926;DHT22;32667;48.248;-1.700;2023-08-21T08:37:46;23.30;63.80
46926;DHT22;32667;48.248;-1.700;2023-08-21T08:40:15;23.40;63.80
46926;DHT22;32667;48.248;-1.700;2023-08-21T08:42:41;23.50;63.60
46926;DHT22;32667;48.248;-1.700;2023-08-21T08:45:07;23.50;63.60
46926;DHT22;32667;48.248;-1.700;2023-08-21T08:47:34;23.60;63.60
46926;DHT22;32667;48.248;-1.700;2023-08-21T08:50:06;23.70;63.70
46926;DHT22;32667;48.248;-1.700;2023-08-21T08:52:39;23.70;63.70
46926;DHT22;32667;48.248;-1.700;2023-08-21T08:55:06;23.70;63.70
46926;DHT22;32667;48.248;-1.700;2023-08-21T08:57:32;23.70;63.70
46926;DHT22;32667;48.248;-1.700;2023-08-21T08:59:59;23.80;63.80
46926;DHT22;32667;48.248;-1.700;2023-08-21T09:02:27;23.80;63.70
46926;DHT22;32667;48.248;-1.700;2023-08-21T09:04:53;23.90;63.80
46926;DHT22;32667;48.248;-1.700;2023-08-21T09:07:20;23.90;63.90
46926;DHT22;32667;48.248;-1.700;2023-08-21T09:09:49;23.90;64.00
46926;DHT22;32667;48.248;-1.700;2023-08-21T09:12:19;23.80;64.00
46926;DHT22;32667;48.248;-1.700;2023-08-21T09:14:55;23.80;64.10
46926;DHT22;32667;48.248;-1.700;2023-08-21T09:17:20;23.90;64.10
46926;DHT22;32667;48.248;-1.700;2023-08-21T09:19:46;24.00;63.90
46926;DHT22;32667;48.248;-1.700;2023-08-21T09:22:16;24.00;63.80
46926;DHT22;32667;48.248;-1.700;2023-08-21T09:25:06;24.10;63.70
46926;DHT22;32667;48.248;-1.700;2023-08-21T09:27:37;24.20;63.60
46926;DHT22;32667;48.248;-1.700;2023-08-21T09:30:09;24.30;63.50
46926;DHT22;32667;48.248;-1.700;2023-08-21T09:32:58;24.30;63.50
46926;DHT22;32667;48.248;-1.700;2023-08-21T09:35:26;24.20;63.70
46926;DHT22;32667;48.248;-1.700;2023-08-21T09:37:52;24.20;63.70
46926;DHT22;32667;48.248;-1.700;2023-08-21T09:40:19;24.20;63.70
46926;DHT22;32667;48.248;-1.700;2023-08-21T09:42:45;24.30;63.70
46926;DHT22;32667;48.248;-1.700;2023-08-21T09:45:14;24.20;63.70
46926;DHT22;32667;48.248;-1.700;2023-08-21T09:47:44;24.20;63.80
46926;DHT22;32667;48.248;-1.700;2023-08-21T09:50:15;24.30;63.90
46926;DHT22;32667;48.248;-1.700;2023-08-21T09:52:41;24.30;63.70
46926;DHT22;32667;48.248;-1.700;2023-08-21T09:55:18;24.40;63.60
46926;DHT22;32667;48.248;-1.700;2023-08-21T09:57:46;24.50;63.40
46926;DHT22;32667;48.248;-1.700;2023-08-21T10:00:14;24.50;63.50
46926;DHT22;32667;48.248;-1.700;2023-08-21T10:02:50;24.50;63.60
46926;DHT22;32667;48.248;-1.700;2023-08-21T10:05:17;24.50;63.50
46926;DHT22;32667;48.248;-1.700;2023-08-21T10:07:49;24.60;63.50
46926;DHT22;32667;48.248;-1.700;2023-08-21T10:10:20;24.60;63.50
46926;DHT22;32667;48.248;-1.700;2023-08-21T10:12:47;24.70;63.50
46926;DHT22;32667;48.248;-1.700;2023-08-21T10:15:13;24.70;63.40
46926;DHT22;32667;48.248;-1.700;2023-08-21T10:17:43;24.80;63.30
46926;DHT22;32667;48.248;-1.700;2023-08-21T10:20:09;24.90;63.30
46926;DHT22;32667;48.248;-1.700;2023-08-21T10:25:17;25.00;63.00
46926;DHT22;32667;48.248;-1.700;2023-08-21T10:27:46;25.00;63.00
46926;DHT22;32667;48.248;-1.700;2023-08-21T10:30:23;25.00;63.10
46926;DHT22;32667;48.248;-1.700;2023-08-21T10:32:51;25.00;63.10
46926;DHT22;32667;48.248;-1.700;2023-08-21T10:35:22;25.10;63.10
46926;DHT22;32667;48.248;-1.700;2023-08-21T10:41:06;25.20;62.90
46926;DHT22;32667;48.248;-1.700;2023-08-21T10:43:41;25.30;62.90
46926;DHT22;32667;48.248;-1.700;2023-08-21T10:46:12;25.30;62.90
46926;DHT22;32667;48.248;-1.700;2023-08-21T10:48:41;25.30;62.80
46926;DHT22;32667;48.248;-1.700;2023-08-21T10:51:09;25.50;62.80
46926;DHT22;32667;48.248;-1.700;2023-08-21T10:53:35;25.50;62.60
46926;DHT22;32667;48.248;-1.700;2023-08-21T10:56:09;25.60;62.50
46926;DHT22;32667;48.248;-1.700;2023-08-21T10:58:44;25.70;62.50
46926;DHT22;32667;48.248;-1.700;2023-08-21T11:01:45;25.70;62.40
46926;DHT22;32667;48.248;-1.700;2023-08-21T11:04:15;25.80;62.40
46926;DHT22;32667;48.248;-1.700;2023-08-21T11:06:41;25.80;62.30
46926;DHT22;32667;48.248;-1.700;2023-08-21T11:09:22;25.90;62.40
46926;DHT22;32667;48.248;-1.700;2023-08-21T11:11:48;25.90;62.30
46926;DHT22;32667;48.248;-1.700;2023-08-21T11:14:19;26.00;62.30
46926;DHT22;32667;48.248;-1.700;2023-08-21T11:16:50;26.00;62.20
46926;DHT22;32667;48.248;-1.700;2023-08-21T11:19:21;26.10;62.30
46926;DHT22;32667;48.248;-1.700;2023-08-21T11:21:51;26.10;62.20
46926;DHT22;32667;48.248;-1.700;2023-08-21T11:24:19;26.20;62.30
46926;DHT22;32667;48.248;-1.700;2023-08-21T11:26:44;26.20;62.20
46926;DHT22;32667;48.248;-1.700;2023-08-21T11:29:10;26.20;62.20
46926;DHT22;32667;48.248;-1.700;2023-08-21T11:31:39;26.20;62.20
46926;DHT22;32667;48.248;-1.700;2023-08-21T11:34:05;26.20;62.30
46926;DHT22;32667;48.248;-1.700;2023-08-21T11:36:31;26.20;62.30
46926;DHT22;32667;48.248;-1.700;2023-08-21T11:39:01;26.30;62.30
46926;DHT22;32667;48.248;-1.700;2023-08-21T11:41:29;26.40;62.20
46926;DHT22;32667;48.248;-1.700;2023-08-21T11:44:02;26.40;62.20
46926;DHT22;32667;48.248;-1.700;2023-08-21T11:46:29;26.40;62.20
46926;DHT22;32667;48.248;-1.700;2023-08-21T11:49:02;26.50;62.20
46926;DHT22;32667;48.248;-1.700;2023-08-21T11:51:39;26.60;62.20
46926;DHT22;32667;48.248;-1.700;2023-08-21T11:54:06;26.60;62.10
46926;DHT22;32667;48.248;-1.700;2023-08-21T11:56:39;26.60;62.20
46926;DHT22;32667;48.248;-1.700;2023-08-21T11:59:08;26.60;62.20
46926;DHT22;32667;48.248;-1.700;2023-08-21T12:01:42;26.70;62.30
46926;DHT22;32667;48.248;-1.700;2023-08-21T12:04:14;26.70;62.10
46926;DHT22;32667;48.248;-1.700;2023-08-21T12:06:49;26.80;62.00
46926;DHT22;32667;48.248;-1.700;2023-08-21T12:09:15;26.90;61.90
46926;DHT22;32667;48.248;-1.700;2023-08-21T12:11:40;27.00;61.80
46926;DHT22;32667;48.248;-1.700;2023-08-21T12:14:08;27.10;61.70
46926;DHT22;32667;48.248;-1.700;2023-08-21T12:16:34;27.20;61.60
46926;DHT22;32667;48.248;-1.700;2023-08-21T12:19:02;27.30;61.60
46926;DHT22;32667;48.248;-1.700;2023-08-21T12:21:31;27.40;61.40
46926;DHT22;32667;48.248;-1.700;2023-08-21T12:24:01;27.50;61.40
46926;DHT22;32667;48.248;-1.700;2023-08-21T12:26:27;27.50;61.40
46926;DHT22;32667;48.248;-1.700;2023-08-21T12:28:53;27.50;61.40
46926;DHT22;32667;48.248;-1.700;2023-08-21T12:31:23;27.60;61.50
46926;DHT22;32667;48.248;-1.700;2023-08-21T12:33:49;27.60;61.40
46926;DHT22;32667;48.248;-1.700;2023-08-21T12:36:21;27.70;61.40
46926;DHT22;32667;48.248;-1.700;2023-08-21T12:38:49;27.70;61.40
46926;DHT22;32667;48.248;-1.700;2023-08-21T12:41:17;27.80;61.30
46926;DHT22;32667;48.248;-1.700;2023-08-21T12:43:43;27.90;61.20
46926;DHT22;32667;48.248;-1.700;2023-08-21T12:46:09;27.90;61.20
46926;DHT22;32667;48.248;-1.700;2023-08-21T12:48:35;28.00;61.20
46926;DHT22;32667;48.248;-1.700;2023-08-21T12:51:03;28.10;61.20
46926;DHT22;32667;48.248;-1.700;2023-08-21T12:53:30;28.20;61.10
46926;DHT22;32667;48.248;-1.700;2023-08-21T12:55:56;28.30;61.10
46926;DHT22;32667;48.248;-1.700;2023-08-21T12:58:22;28.40;61.70
46926;DHT22;32667;48.248;-1.700;2023-08-21T13:00:48;28.50;61.00
46926;DHT22;32667;48.248;-1.700;2023-08-21T13:03:15;28.50;60.80
46926;DHT22;32667;48.248;-1.700;2023-08-21T13:05:44;28.60;60.80
46926;DHT22;32667;48.248;-1.700;2023-08-21T13:08:09;28.70;60.70
46926;DHT22;32667;48.248;-1.700;2023-08-21T13:10:35;28.90;60.60
46926;DHT22;32667;48.248;-1.700;2023-08-21T13:13:05;29.10;60.40
46926;DHT22;32667;48.248;-1.700;2023-08-21T13:15:33;29.30;60.30
46926;DHT22;32667;48.248;-1.700;2023-08-21T13:17:59;29.40;60.20
46926;DHT22;32667;48.248;-1.700;2023-08-21T13:20:25;29.60;60.00
46926;DHT22;32667;48.248;-1.700;2023-08-21T13:22:55;29.90;59.90
46926;DHT22;32667;48.248;-1.700;2023-08-21T13:25:24;30.10;59.80
46926;DHT22;32667;48.248;-1.700;2023-08-21T13:27:51;30.30;59.60
46926;DHT22;32667;48.248;-1.700;2023-08-21T13:30:17;30.50;59.50
46926;DHT22;32667;48.248;-1.700;2023-08-21T13:32:43;30.50;59.50
46926;DHT22;32667;48.248;-1.700;2023-08-21T13:35:09;30.60;59.60
46926;DHT22;32667;48.248;-1.700;2023-08-21T13:37:38;30.60;59.60
46926;DHT22;32667;48.248;-1.700;2023-08-21T13:40:04;30.70;59.70
46926;DHT22;32667;48.248;-1.700;2023-08-21T13:42:40;30.90;59.70
46926;DHT22;32667;48.248;-1.700;2023-08-21T13:45:15;30.90;59.40
46926;DHT22;32667;48.248;-1.700;2023-08-21T13:47:42;31.10;59.60
46926;DHT22;32667;48.248;-1.700;2023-08-21T13:50:11;31.20;59.50
46926;DHT22;32667;48.248;-1.700;2023-08-21T13:52:39;31.40;59.40
46926;DHT22;32667;48.248;-1.700;2023-08-21T13:55:06;31.40;59.20
46926;DHT22;32667;48.248;-1.700;2023-08-21T13:57:32;31.60;59.40
46926;DHT22;32667;48.248;-1.700;2023-08-21T14:00:09;31.70;59.30
46926;DHT22;32667;48.248;-1.700;2023-08-21T14:02:38;31.70;59.20
46926;DHT22;32667;48.248;-1.700;2023-08-21T14:05:04;31.80;59.30
46926;DHT22;32667;48.248;-1.700;2023-08-21T14:07:31;32.00;59.30
46926;DHT22;32667;48.248;-1.700;2023-08-21T14:09:57;32.10;59.10
46926;DHT22;32667;48.248;-1.700;2023-08-21T14:12:27;32.10;59.10
46926;DHT22;32667;48.248;-1.700;2023-08-21T14:14:55;32.20;59.10
46926;DHT22;32667;48.248;-1.700;2023-08-21T14:17:23;32.40;59.00
46926;DHT22;32667;48.248;-1.700;2023-08-21T14:19:48;32.60;58.80
46926;DHT22;32667;48.248;-1.700;2023-08-21T14:22:17;32.80;58.80
46926;DHT22;32667;48.248;-1.700;2023-08-21T14:24:54;32.80;58.60
46926;DHT22;32667;48.248;-1.700;2023-08-21T14:27:20;32.70;59.00
46926;DHT22;32667;48.248;-1.700;2023-08-21T14:29:45;32.80;59.00
46926;DHT22;32667;48.248;-1.700;2023-08-21T14:32:16;32.80;59.10
46926;DHT22;32667;48.248;-1.700;2023-08-21T14:34:42;32.80;59.20
46926;DHT22;32667;48.248;-1.700;2023-08-21T14:37:13;32.90;59.10
46926;DHT22;32667;48.248;-1.700;2023-08-21T14:39:41;33.10;59.00
46926;DHT22;32667;48.248;-1.700;2023-08-21T14:42:10;33.10;59.00
46926;DHT22;32667;48.248;-1.700;2023-08-21T14:44:39;33.10;58.90
46926;DHT22;32667;48.248;-1.700;2023-08-21T14:47:05;33.30;58.90
46926;DHT22;32667;48.248;-1.700;2023-08-21T14:49:31;33.30;58.80
46926;DHT22;32667;48.248;-1.700;2023-08-21T14:51:58;33.30;58.80
46926;DHT22;32667;48.248;-1.700;2023-08-21T14:54:27;33.30;58.90
46926;DHT22;32667;48.248;-1.700;2023-08-21T14:56:57;33.30;59.00
46926;DHT22;32667;48.248;-1.700;2023-08-21T14:59:26;33.20;59.10
46926;DHT22;32667;48.248;-1.700;2023-08-21T15:01:51;33.10;59.50
46926;DHT22;32667;48.248;-1.700;2023-08-21T15:04:17;33.00;59.70
46926;DHT22;32667;48.248;-1.700;2023-08-21T15:06:43;33.00;59.70
46926;DHT22;32667;48.248;-1.700;2023-08-21T15:09:21;33.10;59.60
46926;DHT22;32667;48.248;-1.700;2023-08-21T15:11:49;33.10;59.50
46926;DHT22;32667;48.248;-1.700;2023-08-21T15:14:17;33.10;59.60
46926;DHT22;32667;48.248;-1.700;2023-08-21T15:16:43;33.00;59.70
46926;DHT22;32667;48.248;-1.700;2023-08-21T15:19:09;32.80;59.90
46926;DHT22;32667;48.248;-1.700;2023-08-21T15:21:44;32.60;60.20
46926;DHT22;32667;48.248;-1.700;2023-08-21T15:24:19;32.30;60.80
46926;DHT22;32667;48.248;-1.700;2023-08-21T15:26:47;32.20;61.60
46926;DHT22;32667;48.248;-1.700;2023-08-21T15:29:16;32.20;60.90
46926;DHT22;32667;48.248;-1.700;2023-08-21T15:31:42;32.20;60.80